sensor_id;sensor_type;location;lat;lon;timestamp;P1;durP1;ratioP1;P2;durP2;ratioP2
10582;SDS011;33679;51.218;6.786;2024-01-06T00:01:39;10.00;;;6.40;;
10582;SDS011;33679;51.218;6.786;2024-01-06T00:04:13;8.10;;;6.07;;
10582;SDS011;33679;51.218;6.786;2024-01-06T00:06:46;10.37;;;6.10;;
10582;SDS011;33679;51.218;6.786;2024-01-06T00:09:20;9.93;;;6.63;;
10582;SDS011;33679;51.218;6.786;2024-01-06T00:11:53;11.87;;;7.27;;
10582;SDS011;33679;51.218;6.786;2024-01-06T00:14:26;10.97;;;6.90;;
10582;SDS011;33679;51.218;6.786;2024-01-06T00:16:59;12.37;;;6.60;;
10582;SDS011;33679;51.218;6.786;2024-01-06T00:19:32;8.40;;;6.10;;
10582;SDS011;33679;51.218;6.786;2024-01-06T00:22:05;11.40;;;6.57;;
10582;SDS011;33679;51.218;6.786;2024-01-06T00:24:37;10.83;;;6.00;;
10582;SDS011;33679;51.218;6.786;2024-01-06T00:27:10;11.13;;;6.47;;
10582;SDS011;33679;51.218;6.786;2024-01-06T00:29:42;12.97;;;6.13;;
10582;SDS011;33679;51.218;6.786;2024-01-06T00:32:14;9.47;;;6.03;;
10582;SDS011;33679;51.218;6.786;2024-01-06T00:34:49;8.93;;;5.83;;
10582;SDS011;33679;51.218;6.786;2024-01-06T00:37:21;9.03;;;6.10;;
10582;SDS011;33679;51.218;6.786;2024-01-06T00:39:54;8.40;;;6.27;;
10582;SDS011;33679;51.218;6.786;2024-01-06T00:42:26;8.20;;;5.73;;
10582;SDS011;33679;51.218;6.786;2024-01-06T00:44:58;9.67;;;6.37;;
10582;SDS011;33679;51.218;6.786;2024-01-06T00:47:30;12.33;;;6.90;;
10582;SDS011;33679;51.218;6.786;2024-01-06T00:50:05;10.50;;;6.50;;
10582;SDS011;33679;51.218;6.786;2024-01-06T00:52:38;11.33;;;6.20;;
10582;SDS011;33679;51.218;6.786;2024-01-06T00:55:11;10.43;;;6.17;;
10582;SDS011;33679;51.218;6.786;2024-01-06T00:57:44;11.30;;;6.50;;
10582;SDS011;33679;51.218;6.786;2024-01-06T01:00:16;10.27;;;6.90;;
10582;SDS011;33679;51.218;6.786;2024-01-06T01:02:50;13.73;;;7.47;;
10582;SDS011;33679;51.218;6.786;2024-01-06T01:05:24;12.43;;;7.57;;
10582;SDS011;33679;51.218;6.786;2024-01-06T01:07:56;12.60;;;6.10;;
10582;SDS011;33679;51.218;6.786;2024-01-06T01:10:28;9.93;;;5.87;;
10582;SDS011;33679;51.218;6.786;2024-01-06T01:13:01;13.03;;;7.60;;
10582;SDS011;33679;51.218;6.786;2024-01-06T01:15:33;11.30;;;7.27;;
10582;SDS011;33679;51.218;6.786;2024-01-06T01:18:05;11.20;;;6.93;;
10582;SDS011;33679;51.218;6.786;2024-01-06T01:20:39;10.57;;;6.37;;
10582;SDS011;33679;51.218;6.786;2024-01-06T01:23:14;11.40;;;7.43;;
10582;SDS011;33679;51.218;6.786;2024-01-06T01:25:46;9.20;;;6.00;;
10582;SDS011;33679;51.218;6.786;2024-01-06T01:28:21;12.80;;;6.40;;
10582;SDS011;33679;51.218;6.786;2024-01-06T01:30:54;14.70;;;6.50;;
10582;SDS011;33679;51.218;6.786;2024-01-06T01:33:26;13.40;;;6.73;;
10582;SDS011;33679;51.218;6.786;2024-01-06T01:36:00;11.10;;;6.97;;
10582;SDS011;33679;51.218;6.786;2024-01-06T01:38:35;10.03;;;6.60;;
10582;SDS011;33679;51.218;6.786;2024-01-06T01:41:08;11.00;;;6.80;;
10582;SDS011;33679;51.218;6.786;2024-01-06T01:43:40;11.90;;;6.87;;
10582;SDS011;33679;51.218;6.786;2024-01-06T01:46:12;12.17;;;7.33;;
10582;SDS011;33679;51.218;6.786;2024-01-06T01:48:45;11.37;;;6.80;;
10582;SDS011;33679;51.218;6.786;2024-01-06T01:51:19;9.93;;;6.60;;
10582;SDS011;33679;51.218;6.786;2024-01-06T01:53:52;10.57;;;6.80;;
10582;SDS011;33679;51.218;6.786;2024-01-06T01:56:25;11.77;;;6.73;;
10582;SDS011;33679;51.218;6.786;2024-01-06T01:58:59;13.50;;;7.90;;
10582;SDS011;33679;51.218;6.786;2024-01-06T02:01:33;11.03;;;6.40;;
10582;SDS011;33679;51.218;6.786;2024-01-06T02:04:05;20.03;;;8.23;;
10582;SDS011;33679;51.218;6.786;2024-01-06T02:06:39;13.40;;;7.20;;
10582;SDS011;33679;51.218;6.786;2024-01-06T02:09:13;14.67;;;8.10;;
10582;SDS011;33679;51.218;6.786;2024-01-06T02:11:49;15.70;;;8.67;;
10582;SDS011;33679;51.218;6.786;2024-01-06T02:14:22;12.30;;;6.90;;
10582;SDS011;33679;51.218;6.786;2024-01-06T02:16:55;11.13;;;6.43;;
10582;SDS011;33679;51.218;6.786;2024-01-06T02:19:28;13.77;;;8.00;;
10582;SDS011;33679;51.218;6.786;2024-01-06T02:22:02;12.00;;;7.40;;
10582;SDS011;33679;51.218;6.786;2024-01-06T02:24:36;15.00;;;9.17;;
10582;SDS011;33679;51.218;6.786;2024-01-06T02:27:13;13.60;;;7.90;;
10582;SDS011;33679;51.218;6.786;2024-01-06T02:29:47;11.63;;;8.20;;
10582;SDS011;33679;51.218;6.786;2024-01-06T02:32:19;15.83;;;8.13;;
10582;SDS011;33679;51.218;6.786;2024-01-06T02:34:52;14.17;;;8.37;;
10582;SDS011;33679;51.218;6.786;2024-01-06T02:37:26;14.13;;;7.87;;
10582;SDS011;33679;51.218;6.786;2024-01-06T02:40:00;12.60;;;7.30;;
10582;SDS011;33679;51.218;6.786;2024-01-06T02:42:33;10.53;;;7.20;;
10582;SDS011;33679;51.218;6.786;2024-01-06T02:45:09;11.60;;;7.60;;
10582;SDS011;33679;51.218;6.786;2024-01-06T02:47:41;15.47;;;8.00;;
10582;SDS011;33679;51.218;6.786;2024-01-06T02:50:15;13.40;;;8.20;;
10582;SDS011;33679;51.218;6.786;2024-01-06T02:52:49;13.17;;;8.50;;
10582;SDS011;33679;51.218;6.786;2024-01-06T02:55:21;14.87;;;8.87;;
10582;SDS011;33679;51.218;6.786;2024-01-06T02:57:56;17.33;;;9.50;;
10582;SDS011;33679;51.218;6.786;2024-01-06T03:00:29;13.03;;;8.50;;
10582;SDS011;33679;51.218;6.786;2024-01-06T03:03:01;13.90;;;8.67;;
10582;SDS011;33679;51.218;6.786;2024-01-06T03:05:35;11.57;;;7.67;;
10582;SDS011;33679;51.218;6.786;2024-01-06T03:08:10;14.70;;;8.67;;
10582;SDS011;33679;51.218;6.786;2024-01-06T03:10:53;15.37;;;8.10;;
10582;SDS011;33679;51.218;6.786;2024-01-06T03:13:26;17.90;;;9.97;;
10582;SDS011;33679;51.218;6.786;2024-01-06T03:16:01;13.47;;;8.33;;
10582;SDS011;33679;51.218;6.786;2024-01-06T03:18:35;15.90;;;9.13;;
10582;SDS011;33679;51.218;6.786;2024-01-06T03:21:16;12.87;;;8.57;;
10582;SDS011;33679;51.218;6.786;2024-01-06T03:23:49;18.27;;;9.30;;
10582;SDS011;33679;51.218;6.786;2024-01-06T03:26:22;19.90;;;11.23;;
10582;SDS011;33679;51.218;6.786;2024-01-06T03:28:55;18.17;;;10.50;;
10582;SDS011;33679;51.218;6.786;2024-01-06T03:31:29;19.47;;;10.27;;
10582;SDS011;33679;51.218;6.786;2024-01-06T03:34:01;18.00;;;9.63;;
10582;SDS011;33679;51.218;6.786;2024-01-06T03:36:33;18.37;;;10.60;;
10582;SDS011;33679;51.218;6.786;2024-01-06T03:39:07;18.67;;;10.40;;
10582;SDS011;33679;51.218;6.786;2024-01-06T03:41:40;18.73;;;10.67;;
10582;SDS011;33679;51.218;6.786;2024-01-06T03:44:13;18.40;;;10.13;;
10582;SDS011;33679;51.218;6.786;2024-01-06T03:46:45;19.40;;;10.23;;
10582;SDS011;33679;51.218;6.786;2024-01-06T03:49:18;16.97;;;9.80;;
10582;SDS011;33679;51.218;6.786;2024-01-06T03:51:51;20.33;;;10.17;;
10582;SDS011;33679;51.218;6.786;2024-01-06T03:54:25;20.73;;;11.17;;
10582;SDS011;33679;51.218;6.786;2024-01-06T03:56:57;17.63;;;9.50;;
10582;SDS011;33679;51.218;6.786;2024-01-06T03:59:30;19.03;;;10.23;;
10582;SDS011;33679;51.218;6.786;2024-01-06T04:02:03;17.93;;;9.40;;
10582;SDS011;33679;51.218;6.786;2024-01-06T04:04:40;16.50;;;8.70;;
10582;SDS011;33679;51.218;6.786;2024-01-06T04:07:13;15.80;;;8.57;;
10582;SDS011;33679;51.218;6.786;2024-01-06T04:09:47;16.63;;;9.23;;
10582;SDS011;33679;51.218;6.786;2024-01-06T04:12:20;10.70;;;6.80;;
10582;SDS011;33679;51.218;6.786;2024-01-06T04:14:53;12.80;;;6.60;;
10582;SDS011;33679;51.218;6.786;2024-01-06T04:17:27;10.07;;;6.03;;
10582;SDS011;33679;51.218;6.786;2024-01-06T04:19:59;12.30;;;6.50;;
10582;SDS011;33679;51.218;6.786;2024-01-06T04:22:32;11.43;;;6.40;;
10582;SDS011;33679;51.218;6.786;2024-01-06T04:25:06;13.07;;;7.13;;
10582;SDS011;33679;51.218;6.786;2024-01-06T04:27:40;14.93;;;7.50;;
10582;SDS011;33679;51.218;6.786;2024-01-06T04:30:14;9.80;;;5.27;;
10582;SDS011;33679;51.218;6.786;2024-01-06T04:32:47;10.57;;;6.20;;
10582;SDS011;33679;51.218;6.786;2024-01-06T04:35:20;12.73;;;7.10;;
10582;SDS011;33679;51.218;6.786;2024-01-06T04:37:54;13.77;;;6.30;;
10582;SDS011;33679;51.218;6.786;2024-01-06T04:40:29;12.30;;;6.93;;
10582;SDS011;33679;51.218;6.786;2024-01-06T04:43:03;15.80;;;6.43;;
10582;SDS011;33679;51.218;6.786;2024-01-06T04:45:36;9.73;;;5.40;;
10582;SDS011;33679;51.218;6.786;2024-01-06T04:48:11;11.57;;;6.63;;
10582;SDS011;33679;51.218;6.786;2024-01-06T04:50:43;10.10;;;5.80;;
10582;SDS011;33679;51.218;6.786;2024-01-06T04:53:16;9.87;;;5.60;;
10582;SDS011;33679;51.218;6.786;2024-01-06T04:55:50;10.97;;;5.67;;
10582;SDS011;33679;51.218;6.786;2024-01-06T04:58:29;10.17;;;6.30;;
10582;SDS011;33679;51.218;6.786;2024-01-06T05:01:01;11.77;;;6.60;;
10582;SDS011;33679;51.218;6.786;2024-01-06T05:03:36;10.27;;;6.00;;
10582;SDS011;33679;51.218;6.786;2024-01-06T05:06:09;10.40;;;5.77;;
10582;SDS011;33679;51.218;6.786;2024-01-06T05:08:42;11.23;;;6.53;;
10582;SDS011;33679;51.218;6.786;2024-01-06T05:11:18;10.37;;;5.50;;
10582;SDS011;33679;51.218;6.786;2024-01-06T05:13:51;10.90;;;6.20;;
10582;SDS011;33679;51.218;6.786;2024-01-06T05:16:26;10.57;;;6.23;;
10582;SDS011;33679;51.218;6.786;2024-01-06T05:19:01;12.80;;;6.70;;
10582;SDS011;33679;51.218;6.786;2024-01-06T05:21:35;10.13;;;6.57;;
10582;SDS011;33679;51.218;6.786;2024-01-06T05:24:07;11.63;;;6.80;;
10582;SDS011;33679;51.218;6.786;2024-01-06T05:26:41;8.03;;;5.43;;
10582;SDS011;33679;51.218;6.786;2024-01-06T05:29:14;12.37;;;5.87;;
10582;SDS011;33679;51.218;6.786;2024-01-06T05:31:46;12.67;;;6.30;;
10582;SDS011;33679;51.218;6.786;2024-01-06T05:34:19;12.27;;;7.20;;
10582;SDS011;33679;51.218;6.786;2024-01-06T05:36:51;11.33;;;6.73;;
10582;SDS011;33679;51.218;6.786;2024-01-06T05:39:24;9.80;;;5.80;;
10582;SDS011;33679;51.218;6.786;2024-01-06T05:41:59;11.27;;;6.07;;
10582;SDS011;33679;51.218;6.786;2024-01-06T05:44:34;10.47;;;5.90;;
10582;SDS011;33679;51.218;6.786;2024-01-06T05:47:08;9.53;;;5.20;;
10582;SDS011;33679;51.218;6.786;2024-01-06T05:49:41;12.17;;;6.00;;
10582;SDS011;33679;51.218;6.786;2024-01-06T05:52:14;10.83;;;5.87;;
10582;SDS011;33679;51.218;6.786;2024-01-06T05:54:47;11.63;;;6.07;;
10582;SDS011;33679;51.218;6.786;2024-01-06T05:57:22;9.23;;;5.10;;
10582;SDS011;33679;51.218;6.786;2024-01-06T05:59:56;11.30;;;5.73;;
10582;SDS011;33679;51.218;6.786;2024-01-06T06:02:29;11.53;;;5.77;;
10582;SDS011;33679;51.218;6.786;2024-01-06T06:05:03;12.20;;;6.37;;
10582;SDS011;33679;51.218;6.786;2024-01-06T06:07:36;10.07;;;5.00;;
10582;SDS011;33679;51.218;6.786;2024-01-06T06:10:10;11.10;;;5.80;;
10582;SDS011;33679;51.218;6.786;2024-01-06T06:12:44;11.20;;;5.23;;
10582;SDS011;33679;51.218;6.786;2024-01-06T06:15:17;9.67;;;5.23;;
10582;SDS011;33679;51.218;6.786;2024-01-06T06:17:49;11.27;;;6.10;;
10582;SDS011;33679;51.218;6.786;2024-01-06T06:20:22;10.27;;;5.60;;
10582;SDS011;33679;51.218;6.786;2024-01-06T06:22:54;10.83;;;5.90;;
10582;SDS011;33679;51.218;6.786;2024-01-06T06:25:29;10.23;;;6.40;;
10582;SDS011;33679;51.218;6.786;2024-01-06T06:28:05;16.37;;;7.87;;
10582;SDS011;33679;51.218;6.786;2024-01-06T06:30:38;10.17;;;5.50;;
10582;SDS011;33679;51.218;6.786;2024-01-06T06:33:10;9.53;;;5.10;;
10582;SDS011;33679;51.218;6.786;2024-01-06T06:35:43;11.70;;;6.30;;
10582;SDS011;33679;51.218;6.786;2024-01-06T06:38:16;9.27;;;6.10;;
10582;SDS011;33679;51.218;6.786;2024-01-06T06:40:48;10.63;;;5.97;;
10582;SDS011;33679;51.218;6.786;2024-01-06T06:43:25;10.23;;;5.37;;
10582;SDS011;33679;51.218;6.786;2024-01-06T06:45:59;11.77;;;6.10;;
10582;SDS011;33679;51.218;6.786;2024-01-06T06:48:31;11.93;;;6.10;;
10582;SDS011;33679;51.218;6.786;2024-01-06T06:51:03;8.80;;;5.03;;
10582;SDS011;33679;51.218;6.786;2024-01-06T06:53:36;10.00;;;5.10;;
10582;SDS011;33679;51.218;6.786;2024-01-06T06:56:08;9.20;;;5.30;;
10582;SDS011;33679;51.218;6.786;2024-01-06T06:58:42;10.57;;;5.00;;
10582;SDS011;33679;51.218;6.786;2024-01-06T07:01:15;10.37;;;5.17;;
10582;SDS011;33679;51.218;6.786;2024-01-06T07:03:48;8.87;;;5.63;;
10582;SDS011;33679;51.218;6.786;2024-01-06T07:06:20;10.17;;;5.20;;
10582;SDS011;33679;51.218;6.786;2024-01-06T07:08:52;13.80;;;6.77;;
10582;SDS011;33679;51.218;6.786;2024-01-06T07:11:26;13.67;;;6.57;;
10582;SDS011;33679;51.218;6.786;2024-01-06T07:14:00;13.40;;;6.43;;
10582;SDS011;33679;51.218;6.786;2024-01-06T07:16:35;10.77;;;5.40;;
10582;SDS011;33679;51.218;6.786;2024-01-06T07:19:07;11.53;;;5.80;;
10582;SDS011;33679;51.218;6.786;2024-01-06T07:21:40;9.33;;;5.40;;
10582;SDS011;33679;51.218;6.786;2024-01-06T07:24:13;11.23;;;5.83;;
10582;SDS011;33679;51.218;6.786;2024-01-06T07:26:45;11.43;;;6.10;;
10582;SDS011;33679;51.218;6.786;2024-01-06T07:29:19;12.33;;;7.43;;
10582;SDS011;33679;51.218;6.786;2024-01-06T07:31:52;11.50;;;5.97;;
10582;SDS011;33679;51.218;6.786;2024-01-06T07:34:24;12.30;;;6.40;;
10582;SDS011;33679;51.218;6.786;2024-01-06T07:36:57;12.30;;;5.73;;
10582;SDS011;33679;51.218;6.786;2024-01-06T07:39:30;13.83;;;6.80;;
10582;SDS011;33679;51.218;6.786;2024-01-06T07:42:04;12.03;;;5.43;;
10582;SDS011;33679;51.218;6.786;2024-01-06T07:44:39;12.33;;;6.20;;
10582;SDS011;33679;51.218;6.786;2024-01-06T07:47:14;11.60;;;5.70;;
10582;SDS011;33679;51.218;6.786;2024-01-06T07:49:46;13.50;;;6.40;;
10582;SDS011;33679;51.218;6.786;2024-01-06T07:52:19;13.60;;;6.40;;
10582;SDS011;33679;51.218;6.786;2024-01-06T07:54:52;12.07;;;6.07;;
10582;SDS011;33679;51.218;6.786;2024-01-06T07:57:24;17.77;;;5.60;;
10582;SDS011;33679;51.218;6.786;2024-01-06T07:59:58;12.30;;;6.37;;
10582;SDS011;33679;51.218;6.786;2024-01-06T08:02:31;11.33;;;5.53;;
10582;SDS011;33679;51.218;6.786;2024-01-06T08:05:05;12.60;;;6.40;;
10582;SDS011;33679;51.218;6.786;2024-01-06T08:07:40;15.03;;;6.53;;
10582;SDS011;33679;51.218;6.786;2024-01-06T08:10:13;17.50;;;6.80;;
10582;SDS011;33679;51.218;6.786;2024-01-06T08:12:46;14.47;;;7.17;;
10582;SDS011;33679;51.218;6.786;2024-01-06T08:15:20;13.07;;;6.40;;
10582;SDS011;33679;51.218;6.786;2024-01-06T08:17:53;14.23;;;6.13;;
10582;SDS011;33679;51.218;6.786;2024-01-06T08:20:25;13.40;;;7.00;;
10582;SDS011;33679;51.218;6.786;2024-01-06T08:22:57;13.13;;;7.10;;
10582;SDS011;33679;51.218;6.786;2024-01-06T08:25:30;12.97;;;6.83;;
10582;SDS011;33679;51.218;6.786;2024-01-06T08:28:07;12.00;;;6.67;;
10582;SDS011;33679;51.218;6.786;2024-01-06T08:30:41;12.33;;;6.60;;
10582;SDS011;33679;51.218;6.786;2024-01-06T08:33:13;12.73;;;6.07;;
10582;SDS011;33679;51.218;6.786;2024-01-06T08:35:49;17.83;;;6.43;;
10582;SDS011;33679;51.218;6.786;2024-01-06T08:38:22;13.73;;;6.03;;
10582;SDS011;33679;51.218;6.786;2024-01-06T08:40:54;14.90;;;8.17;;
10582;SDS011;33679;51.218;6.786;2024-01-06T08:43:27;13.43;;;7.20;;
10582;SDS011;33679;51.218;6.786;2024-01-06T08:46:00;13.90;;;6.33;;
10582;SDS011;33679;51.218;6.786;2024-01-06T08:48:33;12.27;;;6.50;;
10582;SDS011;33679;51.218;6.786;2024-01-06T08:51:08;11.50;;;6.60;;
10582;SDS011;33679;51.218;6.786;2024-01-06T08:53:44;15.40;;;7.70;;
10582;SDS011;33679;51.218;6.786;2024-01-06T08:56:18;9.70;;;5.60;;
10582;SDS011;33679;51.218;6.786;2024-01-06T08:58:51;12.10;;;7.07;;
10582;SDS011;33679;51.218;6.786;2024-01-06T09:01:25;15.13;;;7.13;;
10582;SDS011;33679;51.218;6.786;2024-01-06T09:03:57;11.10;;;6.57;;
10582;SDS011;33679;51.218;6.786;2024-01-06T09:06:30;9.83;;;5.70;;
10582;SDS011;33679;51.218;6.786;2024-01-06T09:09:03;13.10;;;6.50;;
10582;SDS011;33679;51.218;6.786;2024-01-06T09:11:36;21.47;;;11.17;;
10582;SDS011;33679;51.218;6.786;2024-01-06T09:14:10;18.73;;;8.03;;
10582;SDS011;33679;51.218;6.786;2024-01-06T09:16:45;12.60;;;6.90;;
10582;SDS011;33679;51.218;6.786;2024-01-06T09:19:19;12.33;;;6.93;;
10582;SDS011;33679;51.218;6.786;2024-01-06T09:21:52;12.57;;;6.43;;
10582;SDS011;33679;51.218;6.786;2024-01-06T09:24:26;14.53;;;8.20;;
10582;SDS011;33679;51.218;6.786;2024-01-06T09:26:58;15.80;;;7.57;;
10582;SDS011;33679;51.218;6.786;2024-01-06T09:29:32;16.80;;;7.40;;
10582;SDS011;33679;51.218;6.786;2024-01-06T09:32:05;14.70;;;7.20;;
10582;SDS011;33679;51.218;6.786;2024-01-06T09:34:38;16.90;;;9.17;;
10582;SDS011;33679;51.218;6.786;2024-01-06T09:37:11;20.83;;;8.67;;
10582;SDS011;33679;51.218;6.786;2024-01-06T09:39:48;15.27;;;7.97;;
10582;SDS011;33679;51.218;6.786;2024-01-06T09:42:21;18.33;;;8.80;;
10582;SDS011;33679;51.218;6.786;2024-01-06T09:44:54;20.20;;;8.80;;
10582;SDS011;33679;51.218;6.786;2024-01-06T09:47:32;16.17;;;8.60;;
10582;SDS011;33679;51.218;6.786;2024-01-06T09:50:08;22.10;;;9.67;;
10582;SDS011;33679;51.218;6.786;2024-01-06T09:52:41;19.93;;;9.10;;
10582;SDS011;33679;51.218;6.786;2024-01-06T09:55:14;18.83;;;10.30;;
10582;SDS011;33679;51.218;6.786;2024-01-06T09:57:47;21.67;;;10.77;;
10582;SDS011;33679;51.218;6.786;2024-01-06T10:00:24;17.70;;;9.63;;
10582;SDS011;33679;51.218;6.786;2024-01-06T10:03:00;20.63;;;10.50;;
10582;SDS011;33679;51.218;6.786;2024-01-06T10:05:33;14.50;;;7.57;;
10582;SDS011;33679;51.218;6.786;2024-01-06T10:08:06;16.80;;;8.90;;
10582;SDS011;33679;51.218;6.786;2024-01-06T10:10:38;16.47;;;8.07;;
10582;SDS011;33679;51.218;6.786;2024-01-06T10:13:12;18.80;;;8.87;;
10582;SDS011;33679;51.218;6.786;2024-01-06T10:15:51;16.40;;;8.60;;
10582;SDS011;33679;51.218;6.786;2024-01-06T10:18:26;18.23;;;8.83;;
10582;SDS011;33679;51.218;6.786;2024-01-06T10:21:00;23.10;;;8.57;;
10582;SDS011;33679;51.218;6.786;2024-01-06T10:23:39;16.40;;;7.30;;
10582;SDS011;33679;51.218;6.786;2024-01-06T10:26:16;20.27;;;8.77;;
10582;SDS011;33679;51.218;6.786;2024-01-06T10:28:49;23.83;;;9.00;;
10582;SDS011;33679;51.218;6.786;2024-01-06T10:31:24;15.63;;;8.53;;
10582;SDS011;33679;51.218;6.786;2024-01-06T10:34:02;17.73;;;8.37;;
10582;SDS011;33679;51.218;6.786;2024-01-06T10:36:37;16.53;;;8.50;;
10582;SDS011;33679;51.218;6.786;2024-01-06T10:39:13;22.47;;;8.90;;
10582;SDS011;33679;51.218;6.786;2024-01-06T10:41:47;38.93;;;15.70;;
10582;SDS011;33679;51.218;6.786;2024-01-06T10:44:22;24.70;;;11.73;;
10582;SDS011;33679;51.218;6.786;2024-01-06T10:46:57;21.10;;;9.63;;
10582;SDS011;33679;51.218;6.786;2024-01-06T10:49:33;20.43;;;9.70;;
10582;SDS011;33679;51.218;6.786;2024-01-06T10:52:07;19.80;;;9.43;;
10582;SDS011;33679;51.218;6.786;2024-01-06T10:54:41;20.57;;;9.40;;
10582;SDS011;33679;51.218;6.786;2024-01-06T10:57:15;22.23;;;9.40;;
10582;SDS011;33679;51.218;6.786;2024-01-06T10:59:51;17.20;;;8.70;;
10582;SDS011;33679;51.218;6.786;2024-01-06T11:02:26;18.10;;;9.10;;
10582;SDS011;33679;51.218;6.786;2024-01-06T11:05:00;20.80;;;9.70;;
10582;SDS011;33679;51.218;6.786;2024-01-06T11:07:41;20.73;;;9.40;;
10582;SDS011;33679;51.218;6.786;2024-01-06T11:10:14;24.83;;;11.80;;
10582;SDS011;33679;51.218;6.786;2024-01-06T11:15:41;22.00;;;11.63;;
10582;SDS011;33679;51.218;6.786;2024-01-06T11:21:20;19.10;;;10.93;;
10582;SDS011;33679;51.218;6.786;2024-01-06T11:26:49;25.00;;;12.50;;
10582;SDS011;33679;51.218;6.786;2024-01-06T11:29:24;25.27;;;12.00;;
10582;SDS011;33679;51.218;6.786;2024-01-06T11:34:49;21.10;;;10.30;;
10582;SDS011;33679;51.218;6.786;2024-01-06T11:37:25;24.43;;;10.37;;
10582;SDS011;33679;51.218;6.786;2024-01-06T11:40:10;23.03;;;10.97;;
10582;SDS011;33679;51.218;6.786;2024-01-06T11:43:01;20.80;;;10.30;;
10582;SDS011;33679;51.218;6.786;2024-01-06T11:45:36;21.20;;;10.43;;
10582;SDS011;33679;51.218;6.786;2024-01-06T11:48:11;23.47;;;10.70;;
10582;SDS011;33679;51.218;6.786;2024-01-06T11:50:44;27.33;;;12.13;;
10582;SDS011;33679;51.218;6.786;2024-01-06T11:53:18;25.20;;;11.60;;
10582;SDS011;33679;51.218;6.786;2024-01-06T11:55:51;26.77;;;9.73;;
10582;SDS011;33679;51.218;6.786;2024-01-06T11:58:24;16.37;;;8.83;;
10582;SDS011;33679;51.218;6.786;2024-01-06T12:01:00;18.43;;;8.43;;
10582;SDS011;33679;51.218;6.786;2024-01-06T12:03:33;20.63;;;9.23;;
10582;SDS011;33679;51.218;6.786;2024-01-06T12:06:06;21.17;;;9.53;;
10582;SDS011;33679;51.218;6.786;2024-01-06T12:08:40;18.13;;;9.10;;
10582;SDS011;33679;51.218;6.786;2024-01-06T12:11:12;22.70;;;8.90;;
10582;SDS011;33679;51.218;6.786;2024-01-06T12:13:52;19.67;;;9.97;;
10582;SDS011;33679;51.218;6.786;2024-01-06T12:16:27;23.10;;;9.83;;
10582;SDS011;33679;51.218;6.786;2024-01-06T12:19:02;27.37;;;12.70;;
10582;SDS011;33679;51.218;6.786;2024-01-06T12:21:35;29.87;;;13.87;;
10582;SDS011;33679;51.218;6.786;2024-01-06T12:24:19;27.07;;;12.47;;
10582;SDS011;33679;51.218;6.786;2024-01-06T12:26:56;30.77;;;12.83;;
10582;SDS011;33679;51.218;6.786;2024-01-06T12:29:30;30.53;;;13.03;;
10582;SDS011;33679;51.218;6.786;2024-01-06T12:32:03;27.63;;;12.97;;
10582;SDS011;33679;51.218;6.786;2024-01-06T12:34:37;29.03;;;13.63;;
10582;SDS011;33679;51.218;6.786;2024-01-06T12:37:13;28.90;;;13.80;;
10582;SDS011;33679;51.218;6.786;2024-01-06T12:39:51;29.50;;;13.60;;
10582;SDS011;33679;51.218;6.786;2024-01-06T12:42:25;27.43;;;13.70;;
10582;SDS011;33679;51.218;6.786;2024-01-06T12:44:57;28.67;;;13.47;;
10582;SDS011;33679;51.218;6.786;2024-01-06T12:47:30;30.33;;;13.80;;
10582;SDS011;33679;51.218;6.786;2024-01-06T12:50:13;26.97;;;12.00;;
10582;SDS011;33679;51.218;6.786;2024-01-06T12:52:54;23.60;;;12.00;;
10582;SDS011;33679;51.218;6.786;2024-01-06T12:55:28;26.00;;;13.00;;
10582;SDS011;33679;51.218;6.786;2024-01-06T12:58:00;22.80;;;12.50;;
10582;SDS011;33679;51.218;6.786;2024-01-06T13:00:34;27.73;;;11.90;;
10582;SDS011;33679;51.218;6.786;2024-01-06T13:03:10;25.80;;;13.10;;
10582;SDS011;33679;51.218;6.786;2024-01-06T13:05:43;28.70;;;14.00;;
10582;SDS011;33679;51.218;6.786;2024-01-06T13:08:16;24.10;;;12.10;;
10582;SDS011;33679;51.218;6.786;2024-01-06T13:10:51;23.00;;;11.13;;
10582;SDS011;33679;51.218;6.786;2024-01-06T13:13:23;22.00;;;10.30;;
10582;SDS011;33679;51.218;6.786;2024-01-06T13:15:56;27.53;;;14.03;;
10582;SDS011;33679;51.218;6.786;2024-01-06T13:18:28;30.60;;;13.60;;
10582;SDS011;33679;51.218;6.786;2024-01-06T13:21:04;30.53;;;16.00;;
10582;SDS011;33679;51.218;6.786;2024-01-06T13:23:38;29.40;;;13.50;;
10582;SDS011;33679;51.218;6.786;2024-01-06T13:26:12;27.53;;;13.10;;
10582;SDS011;33679;51.218;6.786;2024-01-06T13:28:44;26.70;;;14.13;;
10582;SDS011;33679;51.218;6.786;2024-01-06T13:31:17;28.23;;;14.70;;
10582;SDS011;33679;51.218;6.786;2024-01-06T13:33:52;32.23;;;12.83;;
10582;SDS011;33679;51.218;6.786;2024-01-06T13:36:28;30.23;;;14.03;;
10582;SDS011;33679;51.218;6.786;2024-01-06T13:39:01;35.80;;;15.53;;
10582;SDS011;33679;51.218;6.786;2024-01-06T13:41:36;38.90;;;16.00;;
10582;SDS011;33679;51.218;6.786;2024-01-06T13:44:09;29.33;;;15.63;;
10582;SDS011;33679;51.218;6.786;2024-01-06T13:46:41;34.57;;;16.90;;
10582;SDS011;33679;51.218;6.786;2024-01-06T13:49:15;31.97;;;16.17;;
10582;SDS011;33679;51.218;6.786;2024-01-06T13:51:48;43.70;;;18.43;;
10582;SDS011;33679;51.218;6.786;2024-01-06T13:54:35;33.60;;;15.07;;
10582;SDS011;33679;51.218;6.786;2024-01-06T13:57:24;36.47;;;15.90;;
10582;SDS011;33679;51.218;6.786;2024-01-06T14:00:12;34.13;;;16.63;;
10582;SDS011;33679;51.218;6.786;2024-01-06T14:03:04;33.23;;;14.80;;
10582;SDS011;33679;51.218;6.786;2024-01-06T14:05:53;47.20;;;21.87;;
10582;SDS011;33679;51.218;6.786;2024-01-06T14:08:43;39.40;;;17.50;;
10582;SDS011;33679;51.218;6.786;2024-01-06T14:11:31;33.50;;;15.93;;
10582;SDS011;33679;51.218;6.786;2024-01-06T14:14:21;31.03;;;13.47;;
10582;SDS011;33679;51.218;6.786;2024-01-06T14:17:09;38.20;;;16.33;;
10582;SDS011;33679;51.218;6.786;2024-01-06T14:19:56;27.37;;;12.77;;
10582;SDS011;33679;51.218;6.786;2024-01-06T14:22:29;29.93;;;13.70;;
10582;SDS011;33679;51.218;6.786;2024-01-06T14:25:01;26.40;;;13.93;;
10582;SDS011;33679;51.218;6.786;2024-01-06T14:27:34;30.03;;;14.37;;
10582;SDS011;33679;51.218;6.786;2024-01-06T14:30:09;24.90;;;13.57;;
10582;SDS011;33679;51.218;6.786;2024-01-06T14:32:42;34.00;;;15.00;;
10582;SDS011;33679;51.218;6.786;2024-01-06T14:35:16;39.10;;;17.10;;
10582;SDS011;33679;51.218;6.786;2024-01-06T14:37:49;35.17;;;15.50;;
10582;SDS011;33679;51.218;6.786;2024-01-06T14:40:24;24.27;;;12.70;;
10582;SDS011;33679;51.218;6.786;2024-01-06T14:42:56;47.30;;;19.57;;
10582;SDS011;33679;51.218;6.786;2024-01-06T14:45:34;27.40;;;12.47;;
10582;SDS011;33679;51.218;6.786;2024-01-06T14:48:07;24.17;;;12.73;;
10582;SDS011;33679;51.218;6.786;2024-01-06T14:50:43;23.13;;;11.97;;
10582;SDS011;33679;51.218;6.786;2024-01-06T14:53:15;28.97;;;13.30;;
10582;SDS011;33679;51.218;6.786;2024-01-06T14:55:48;20.30;;;9.50;;
10582;SDS011;33679;51.218;6.786;2024-01-06T14:58:23;21.40;;;10.10;;
10582;SDS011;33679;51.218;6.786;2024-01-06T15:00:58;18.43;;;9.90;;
10582;SDS011;33679;51.218;6.786;2024-01-06T15:03:31;19.90;;;9.33;;
10582;SDS011;33679;51.218;6.786;2024-01-06T15:06:04;20.07;;;9.27;;
10582;SDS011;33679;51.218;6.786;2024-01-06T15:08:37;15.43;;;8.80;;
10582;SDS011;33679;51.218;6.786;2024-01-06T15:11:09;15.90;;;8.97;;
10582;SDS011;33679;51.218;6.786;2024-01-06T15:13:42;21.50;;;10.70;;
10582;SDS011;33679;51.218;6.786;2024-01-06T15:16:18;29.07;;;13.37;;
10582;SDS011;33679;51.218;6.786;2024-01-06T15:18:52;15.63;;;10.07;;
10582;SDS011;33679;51.218;6.786;2024-01-06T15:21:26;24.13;;;11.17;;
10582;SDS011;33679;51.218;6.786;2024-01-06T15:24:01;25.23;;;10.40;;